sensor_id;sensor_type;location;lat;lon;timestamp;P1;durP1;ratioP1;P2;durP2;ratioP2
50231;SDS011;36118;56.468;84.952;2023-03-01T00:03:12;16.25;;;9.85;;
50231;SDS011;36118;56.468;84.952;2023-03-01T00:08:18;15.13;;;9.38;;
50231;SDS011;36118;56.468;84.952;2023-03-01T00:13:21;18.27;;;12.02;;
50231;SDS011;36118;56.468;84.952;2023-03-01T00:18:24;20.08;;;13.63;;
50231;SDS011;36118;56.468;84.952;2023-03-01T00:23:30;17.80;;;11.13;;
50231;SDS011;36118;56.468;84.952;2023-03-01T00:28:33;18.63;;;11.48;;
50231;SDS011;36118;56.468;84.952;2023-03-01T00:33:36;17.92;;;11.27;;
50231;SDS011;36118;56.468;84.952;2023-03-01T00:38:40;17.27;;;12.48;;
50231;SDS011;36118;56.468;84.952;2023-03-01T00:43:44;17.85;;;12.18;;
50231;SDS011;36118;56.468;84.952;2023-03-01T00:48:50;19.35;;;13.75;;
50231;SDS011;36118;56.468;84.952;2023-03-01T00:53:53;14.30;;;10.82;;
50231;SDS011;36118;56.468;84.952;2023-03-01T00:58:57;16.13;;;11.70;;
50231;SDS011;36118;56.468;84.952;2023-03-01T01:04:00;17.23;;;12.20;;
50231;SDS011;36118;56.468;84.952;2023-03-01T01:09:07;17.48;;;9.82;;
50231;SDS011;36118;56.468;84.952;2023-03-01T01:14:12;17.75;;;11.63;;
50231;SDS011;36118;56.468;84.952;2023-03-01T01:19:16;16.43;;;11.77;;
50231;SDS011;36118;56.468;84.952;2023-03-01T01:24:19;17.60;;;11.25;;
50231;SDS011;36118;56.468;84.952;2023-03-01T01:29:22;17.65;;;11.38;;
50231;SDS011;36118;56.468;84.952;2023-03-01T01:34:24;16.48;;;11.75;;
50231;SDS011;36118;56.468;84.952;2023-03-01T01:39:28;17.45;;;11.63;;
50231;SDS011;36118;56.468;84.952;2023-03-01T01:44:33;16.30;;;11.88;;
50231;SDS011;36118;56.468;84.952;2023-03-01T01:50:10;18.33;;;12.65;;
50231;SDS011;36118;56.468;84.952;2023-03-01T01:55:07;16.17;;;11.32;;
50231;SDS011;36118;56.468;84.952;2023-03-01T02:00:18;18.75;;;12.43;;
50231;SDS011;36118;56.468;84.952;2023-03-01T02:10:56;18.23;;;11.73;;
50231;SDS011;36118;56.468;84.952;2023-03-01T02:15:58;16.88;;;10.88;;
50231;SDS011;36118;56.468;84.952;2023-03-01T02:21:12;16.65;;;10.20;;
50231;SDS011;36118;56.468;84.952;2023-03-01T02:26:45;17.15;;;12.10;;
50231;SDS011;36118;56.468;84.952;2023-03-01T02:31:51;16.00;;;11.82;;
50231;SDS011;36118;56.468;84.952;2023-03-01T02:37:02;16.73;;;11.13;;
50231;SDS011;36118;56.468;84.952;2023-03-01T02:42:09;18.20;;;10.90;;
50231;SDS011;36118;56.468;84.952;2023-03-01T02:47:14;17.83;;;12.40;;
50231;SDS011;36118;56.468;84.952;2023-03-01T02:52:21;20.65;;;12.20;;
50231;SDS011;36118;56.468;84.952;2023-03-01T02:57:33;17.30;;;11.15;;
50231;SDS011;36118;56.468;84.952;2023-03-01T03:02:38;17.88;;;12.38;;
50231;SDS011;36118;56.468;84.952;2023-03-01T03:07:49;20.02;;;12.00;;
50231;SDS011;36118;56.468;84.952;2023-03-01T03:12:57;18.05;;;11.75;;
50231;SDS011;36118;56.468;84.952;2023-03-01T03:18:02;17.85;;;10.60;;
50231;SDS011;36118;56.468;84.952;2023-03-01T03:23:07;15.18;;;10.23;;
50231;SDS011;36118;56.468;84.952;2023-03-01T03:28:10;16.33;;;10.40;;
50231;SDS011;36118;56.468;84.952;2023-03-01T03:33:12;15.13;;;8.88;;
50231;SDS011;36118;56.468;84.952;2023-03-01T03:38:17;14.38;;;7.75;;
50231;SDS011;36118;56.468;84.952;2023-03-01T03:43:22;11.85;;;7.80;;
50231;SDS011;36118;56.468;84.952;2023-03-01T03:48:25;10.15;;;7.50;;
50231;SDS011;36118;56.468;84.952;2023-03-01T03:53:28;9.73;;;6.63;;
50231;SDS011;36118;56.468;84.952;2023-03-01T03:58:31;9.13;;;5.82;;
50231;SDS011;36118;56.468;84.952;2023-03-01T04:03:34;10.35;;;6.00;;
50231;SDS011;36118;56.468;84.952;2023-03-01T04:08:37;8.73;;;6.63;;
50231;SDS011;36118;56.468;84.952;2023-03-01T04:13:40;10.15;;;5.40;;
50231;SDS011;36118;56.468;84.952;2023-03-01T04:18:46;8.82;;;5.28;;
50231;SDS011;36118;56.468;84.952;2023-03-01T04:23:49;10.73;;;5.22;;
50231;SDS011;36118;56.468;84.952;2023-03-01T04:28:54;9.05;;;6.05;;
50231;SDS011;36118;56.468;84.952;2023-03-01T04:33:57;8.43;;;5.65;;
50231;SDS011;36118;56.468;84.952;2023-03-01T04:39:00;8.93;;;6.60;;
50231;SDS011;36118;56.468;84.952;2023-03-01T04:44:14;11.50;;;6.60;;
50231;SDS011;36118;56.468;84.952;2023-03-01T04:49:17;9.82;;;6.75;;
50231;SDS011;36118;56.468;84.952;2023-03-01T04:54:19;10.95;;;6.18;;
50231;SDS011;36118;56.468;84.952;2023-03-01T04:59:22;10.45;;;6.13;;
50231;SDS011;36118;56.468;84.952;2023-03-01T05:04:25;10.30;;;6.90;;
50231;SDS011;36118;56.468;84.952;2023-03-01T05:09:28;9.38;;;6.88;;
50231;SDS011;36118;56.468;84.952;2023-03-01T05:14:36;9.05;;;7.03;;
50231;SDS011;36118;56.468;84.952;2023-03-01T05:19:42;9.93;;;5.57;;
50231;SDS011;36118;56.468;84.952;2023-03-01T05:24:45;8.63;;;6.05;;
50231;SDS011;36118;56.468;84.952;2023-03-01T05:29:49;12.13;;;6.63;;
50231;SDS011;36118;56.468;84.952;2023-03-01T05:34:51;8.90;;;5.82;;
50231;SDS011;36118;56.468;84.952;2023-03-01T05:39:54;9.50;;;6.70;;
50231;SDS011;36118;56.468;84.952;2023-03-01T05:44:57;10.95;;;5.82;;
50231;SDS011;36118;56.468;84.952;2023-03-01T05:49:59;9.90;;;5.75;;
50231;SDS011;36118;56.468;84.952;2023-03-01T05:55:03;9.57;;;5.85;;
50231;SDS011;36118;56.468;84.952;2023-03-01T06:00:07;8.52;;;5.63;;
50231;SDS011;36118;56.468;84.952;2023-03-01T06:05:14;7.95;;;5.25;;
50231;SDS011;36118;56.468;84.952;2023-03-01T06:10:17;9.98;;;5.00;;
50231;SDS011;36118;56.468;84.952;2023-03-01T06:15:22;8.53;;;5.80;;
50231;SDS011;36118;56.468;84.952;2023-03-01T06:20:26;9.50;;;5.90;;
50231;SDS011;36118;56.468;84.952;2023-03-01T06:25:30;9.45;;;5.53;;
50231;SDS011;36118;56.468;84.952;2023-03-01T06:30:33;11.65;;;6.03;;
50231;SDS011;36118;56.468;84.952;2023-03-01T06:35:36;10.38;;;6.75;;
50231;SDS011;36118;56.468;84.952;2023-03-01T06:40:38;8.43;;;6.25;;
50231;SDS011;36118;56.468;84.952;2023-03-01T06:45:41;9.30;;;6.55;;
50231;SDS011;36118;56.468;84.952;2023-03-01T06:50:45;9.93;;;6.45;;
50231;SDS011;36118;56.468;84.952;2023-03-01T06:55:53;11.48;;;6.65;;
50231;SDS011;36118;56.468;84.952;2023-03-01T07:00:56;10.27;;;6.55;;
50231;SDS011;36118;56.468;84.952;2023-03-01T07:05:59;9.20;;;5.80;;
50231;SDS011;36118;56.468;84.952;2023-03-01T07:11:02;10.07;;;7.00;;
50231;SDS011;36118;56.468;84.952;2023-03-01T07:16:06;10.68;;;7.80;;
50231;SDS011;36118;56.468;84.952;2023-03-01T07:21:11;9.85;;;7.47;;
50231;SDS011;36118;56.468;84.952;2023-03-01T07:26:15;12.52;;;7.18;;
50231;SDS011;36118;56.468;84.952;2023-03-01T07:31:18;10.57;;;7.65;;
50231;SDS011;36118;56.468;84.952;2023-03-01T07:36:21;12.95;;;7.60;;
50231;SDS011;36118;56.468;84.952;2023-03-01T07:41:23;11.27;;;7.95;;
50231;SDS011;36118;56.468;84.952;2023-03-01T07:46:27;13.73;;;7.32;;
50231;SDS011;36118;56.468;84.952;2023-03-01T07:51:30;10.38;;;6.50;;
50231;SDS011;36118;56.468;84.952;2023-03-01T07:56:33;10.65;;;7.20;;
50231;SDS011;36118;56.468;84.952;2023-03-01T08:01:36;10.73;;;6.60;;
50231;SDS011;36118;56.468;84.952;2023-03-01T08:06:39;9.00;;;6.50;;
50231;SDS011;36118;56.468;84.952;2023-03-01T08:11:42;9.40;;;6.28;;
50231;SDS011;36118;56.468;84.952;2023-03-01T08:16:44;8.00;;;6.18;;
50231;SDS011;36118;56.468;84.952;2023-03-01T08:21:47;11.15;;;6.40;;
50231;SDS011;36118;56.468;84.952;2023-03-01T08:26:50;15.82;;;6.78;;
50231;SDS011;36118;56.468;84.952;2023-03-01T08:31:53;9.73;;;6.78;;
50231;SDS011;36118;56.468;84.952;2023-03-01T08:36:56;11.68;;;7.05;;
50231;SDS011;36118;56.468;84.952;2023-03-01T08:41:58;10.18;;;6.03;;
50231;SDS011;36118;56.468;84.952;2023-03-01T08:47:01;10.88;;;6.90;;
50231;SDS011;36118;56.468;84.952;2023-03-01T08:52:05;10.20;;;6.55;;
50231;SDS011;36118;56.468;84.952;2023-03-01T08:57:08;9.57;;;6.40;;
50231;SDS011;36118;56.468;84.952;2023-03-01T09:02:12;11.15;;;6.97;;
50231;SDS011;36118;56.468;84.952;2023-03-01T09:07:16;10.02;;;7.28;;
50231;SDS011;36118;56.468;84.952;2023-03-01T09:12:19;10.68;;;7.35;;
50231;SDS011;36118;56.468;84.952;2023-03-01T09:17:22;11.55;;;6.82;;
50231;SDS011;36118;56.468;84.952;2023-03-01T09:22:25;8.38;;;6.20;;
50231;SDS011;36118;56.468;84.952;2023-03-01T09:27:28;11.95;;;7.22;;
50231;SDS011;36118;56.468;84.952;2023-03-01T09:32:31;9.93;;;6.95;;
50231;SDS011;36118;56.468;84.952;2023-03-01T09:37:34;15.13;;;6.30;;
50231;SDS011;36118;56.468;84.952;2023-03-01T09:42:37;11.10;;;7.25;;
50231;SDS011;36118;56.468;84.952;2023-03-01T09:47:51;9.70;;;7.43;;
50231;SDS011;36118;56.468;84.952;2023-03-01T10:03:44;9.50;;;6.75;;
50231;SDS011;36118;56.468;84.952;2023-03-01T10:09:13;11.05;;;6.88;;
50231;SDS011;36118;56.468;84.952;2023-03-01T10:19:43;11.20;;;7.85;;
50231;SDS011;36118;56.468;84.952;2023-03-01T10:24:47;11.13;;;7.18;;
50231;SDS011;36118;56.468;84.952;2023-03-01T10:35:19;13.52;;;8.05;;
50231;SDS011;36118;56.468;84.952;2023-03-01T10:40:33;12.38;;;9.60;;
50231;SDS011;36118;56.468;84.952;2023-03-01T10:45:38;12.75;;;9.27;;
50231;SDS011;36118;56.468;84.952;2023-03-01T10:50:42;11.77;;;7.83;;
50231;SDS011;36118;56.468;84.952;2023-03-01T10:55:46;11.80;;;8.30;;
50231;SDS011;36118;56.468;84.952;2023-03-01T11:16:10;15.63;;;8.35;;
50231;SDS011;36118;56.468;84.952;2023-03-01T11:21:17;16.02;;;10.88;;
50231;SDS011;36118;56.468;84.952;2023-03-01T11:26:20;14.15;;;10.45;;
50231;SDS011;36118;56.468;84.952;2023-03-01T11:31:23;15.43;;;10.63;;
50231;SDS011;36118;56.468;84.952;2023-03-01T11:46:47;17.05;;;11.82;;
50231;SDS011;36118;56.468;84.952;2023-03-01T12:03:14;18.02;;;12.02;;
50231;SDS011;36118;56.468;84.952;2023-03-01T12:08:23;17.38;;;11.05;;
50231;SDS011;36118;56.468;84.952;2023-03-01T12:35:28;22.60;;;17.17;;
50231;SDS011;36118;56.468;84.952;2023-03-01T12:51:34;22.67;;;14.07;;
50231;SDS011;36118;56.468;84.952;2023-03-01T12:56:38;20.83;;;13.03;;
50231;SDS011;36118;56.468;84.952;2023-03-01T13:17:58;30.60;;;19.73;;
50231;SDS011;36118;56.468;84.952;2023-03-01T13:23:07;25.35;;;15.50;;
50231;SDS011;36118;56.468;84.952;2023-03-01T13:33:45;34.13;;;21.33;;
50231;SDS011;36118;56.468;84.952;2023-03-01T13:43:57;41.08;;;24.20;;
50231;SDS011;36118;56.468;84.952;2023-03-01T13:49:00;40.55;;;24.25;;
50231;SDS011;36118;56.468;84.952;2023-03-01T13:54:03;39.35;;;23.60;;
50231;SDS011;36118;56.468;84.952;2023-03-01T13:59:28;37.30;;;21.73;;
50231;SDS011;36118;56.468;84.952;2023-03-01T14:04:32;41.27;;;24.23;;
50231;SDS011;36118;56.468;84.952;2023-03-01T14:09:42;46.05;;;31.15;;
50231;SDS011;36118;56.468;84.952;2023-03-01T14:14:54;45.75;;;28.42;;
50231;SDS011;36118;56.468;84.952;2023-03-01T14:20:07;47.30;;;30.80;;
50231;SDS011;36118;56.468;84.952;2023-03-01T14:30:34;47.97;;;25.95;;
50231;SDS011;36118;56.468;84.952;2023-03-01T14:35:40;55.58;;;27.40;;
50231;SDS011;36118;56.468;84.952;2023-03-01T14:40:44;53.20;;;30.67;;
50231;SDS011;36118;56.468;84.952;2023-03-01T14:45:47;55.45;;;30.13;;
50231;SDS011;36118;56.468;84.952;2023-03-01T14:50:51;46.03;;;23.67;;
50231;SDS011;36118;56.468;84.952;2023-03-01T14:55:55;45.42;;;24.30;;
50231;SDS011;36118;56.468;84.952;2023-03-01T15:01:00;49.03;;;27.90;;
50231;SDS011;36118;56.468;84.952;2023-03-01T15:06:05;51.30;;;25.92;;
50231;SDS011;36118;56.468;84.952;2023-03-01T15:11:28;52.53;;;28.70;;
50231;SDS011;36118;56.468;84.952;2023-03-01T15:16:33;44.42;;;27.20;;
50231;SDS011;36118;56.468;84.952;2023-03-01T15:21:50;52.03;;;24.35;;
50231;SDS011;36118;56.468;84.952;2023-03-01T15:32:02;45.95;;;23.20;;
50231;SDS011;36118;56.468;84.952;2023-03-01T15:42:46;45.10;;;20.17;;
50231;SDS011;36118;56.468;84.952;2023-03-01T15:47:52;38.93;;;22.07;;
50231;SDS011;36118;56.468;84.952;2023-03-01T15:52:56;37.92;;;20.15;;
50231;SDS011;36118;56.468;84.952;2023-03-01T15:58:13;37.03;;;20.85;;
50231;SDS011;36118;56.468;84.952;2023-03-01T16:03:21;44.13;;;22.35;;
50231;SDS011;36118;56.468;84.952;2023-03-01T16:08:24;35.97;;;19.52;;
50231;SDS011;36118;56.468;84.952;2023-03-01T16:13:27;34.67;;;18.48;;
50231;SDS011;36118;56.468;84.952;2023-03-01T16:18:30;38.67;;;19.45;;
50231;SDS011;36118;56.468;84.952;2023-03-01T16:23:33;40.47;;;20.83;;
50231;SDS011;36118;56.468;84.952;2023-03-01T16:28:36;39.08;;;19.88;;
50231;SDS011;36118;56.468;84.952;2023-03-01T16:33:38;36.72;;;19.25;;
50231;SDS011;36118;56.468;84.952;2023-03-01T16:38:41;30.90;;;15.23;;
50231;SDS011;36118;56.468;84.952;2023-03-01T16:43:44;38.25;;;17.88;;
50231;SDS011;36118;56.468;84.952;2023-03-01T16:48:49;31.48;;;16.38;;
50231;SDS011;36118;56.468;84.952;2023-03-01T16:53:52;28.58;;;15.75;;
50231;SDS011;36118;56.468;84.952;2023-03-01T16:58:55;34.20;;;19.33;;
50231;SDS011;36118;56.468;84.952;2023-03-01T17:03:58;30.27;;;17.88;;
50231;SDS011;36118;56.468;84.952;2023-03-01T17:09:01;27.52;;;15.63;;
50231;SDS011;36118;56.468;84.952;2023-03-01T17:14:04;29.00;;;16.10;;
50231;SDS011;36118;56.468;84.952;2023-03-01T17:19:07;31.15;;;16.73;;
50231;SDS011;36118;56.468;84.952;2023-03-01T17:24:10;31.33;;;17.95;;
50231;SDS011;36118;56.468;84.952;2023-03-01T17:29:13;27.00;;;15.80;;
50231;SDS011;36118;56.468;84.952;2023-03-01T17:34:19;23.95;;;14.23;;
50231;SDS011;36118;56.468;84.952;2023-03-01T17:39:22;27.25;;;13.65;;
50231;SDS011;36118;56.468;84.952;2023-03-01T17:44:33;23.70;;;14.48;;
50231;SDS011;36118;56.468;84.952;2023-03-01T17:49:36;25.80;;;13.73;;
50231;SDS011;36118;56.468;84.952;2023-03-01T17:54:39;23.73;;;11.13;;
50231;SDS011;36118;56.468;84.952;2023-03-01T17:59:42;23.17;;;14.82;;
50231;SDS011;36118;56.468;84.952;2023-03-01T18:04:45;19.30;;;11.70;;
50231;SDS011;36118;56.468;84.952;2023-03-01T18:09:48;17.17;;;10.82;;
50231;SDS011;36118;56.468;84.952;2023-03-01T18:14:50;19.17;;;11.20;;
50231;SDS011;36118;56.468;84.952;2023-03-01T18:19:56;16.10;;;9.75;;
50231;SDS011;36118;56.468;84.952;2023-03-01T18:25:00;16.25;;;8.52;;
50231;SDS011;36118;56.468;84.952;2023-03-01T18:30:04;17.40;;;9.48;;
50231;SDS011;36118;56.468;84.952;2023-03-01T18:35:08;16.83;;;8.90;;
50231;SDS011;36118;56.468;84.952;2023-03-01T18:40:10;14.95;;;8.82;;
50231;SDS011;36118;56.468;84.952;2023-03-01T18:45:15;16.53;;;9.67;;
50231;SDS011;36118;56.468;84.952;2023-03-01T18:50:19;20.65;;;7.80;;
50231;SDS011;36118;56.468;84.952;2023-03-01T18:55:22;16.05;;;7.80;;
50231;SDS011;36118;56.468;84.952;2023-03-01T19:00:25;13.30;;;6.03;;
50231;SDS011;36118;56.468;84.952;2023-03-01T19:05:28;13.38;;;7.03;;
50231;SDS011;36118;56.468;84.952;2023-03-01T19:10:31;12.00;;;7.00;;
50231;SDS011;36118;56.468;84.952;2023-03-01T19:15:34;13.30;;;6.60;;
50231;SDS011;36118;56.468;84.952;2023-03-01T19:20:36;12.02;;;6.68;;
50231;SDS011;36118;56.468;84.952;2023-03-01T19:25:41;13.70;;;6.73;;
50231;SDS011;36118;56.468;84.952;2023-03-01T19:30:43;13.85;;;6.13;;
50231;SDS011;36118;56.468;84.952;2023-03-01T19:35:46;10.98;;;5.82;;
50231;SDS011;36118;56.468;84.952;2023-03-01T19:40:49;12.95;;;6.30;;
50231;SDS011;36118;56.468;84.952;2023-03-01T19:45:53;13.20;;;6.68;;
50231;SDS011;36118;56.468;84.952;2023-03-01T19:50:56;12.80;;;7.47;;
50231;SDS011;36118;56.468;84.952;2023-03-01T19:56:00;12.43;;;6.07;;
50231;SDS011;36118;56.468;84.952;2023-03-01T20:01:03;10.50;;;5.20;;
50231;SDS011;36118;56.468;84.952;2023-03-01T20:06:07;9.57;;;6.10;;
50231;SDS011;36118;56.468;84.952;2023-03-01T20:11:12;11.45;;;6.20;;
50231;SDS011;36118;56.468;84.952;2023-03-01T20:16:17;13.88;;;7.32;;
50231;SDS011;36118;56.468;84.952;2023-03-01T20:21:21;9.53;;;6.00;;
50231;SDS011;36118;56.468;84.952;2023-03-01T20:26:25;13.63;;;6.60;;
50231;SDS011;36118;56.468;84.952;2023-03-01T20:31:29;14.65;;;6.47;;
50231;SDS011;36118;56.468;84.952;2023-03-01T20:36:32;11.27;;;5.75;;
50231;SDS011;36118;56.468;84.952;2023-03-01T20:41:36;17.27;;;6.90;;
50231;SDS011;36118;56.468;84.952;2023-03-01T20:46:40;10.35;;;5.20;;
50231;SDS011;36118;56.468;84.952;2023-03-01T20:51:42;10.32;;;5.32;;
50231;SDS011;36118;56.468;84.952;2023-03-01T20:56:46;13.90;;;5.57;;
50231;SDS011;36118;56.468;84.952;2023-03-01T21:01:49;10.60;;;4.70;;
50231;SDS011;36118;56.468;84.952;2023-03-01T21:06:52;8.38;;;4.43;;
50231;SDS011;36118;56.468;84.952;2023-03-01T21:11:54;9.25;;;5.03;;
50231;SDS011;36118;56.468;84.952;2023-03-01T21:16:57;12.10;;;5.85;;
50231;SDS011;36118;56.468;84.952;2023-03-01T21:22:00;10.85;;;5.40;;
50231;SDS011;36118;56.468;84.952;2023-03-01T21:27:03;10.05;;;5.82;;
50231;SDS011;36118;56.468;84.952;2023-03-01T21:32:08;10.15;;;4.97;;
50231;SDS011;36118;56.468;84.952;2023-03-01T21:37:11;9.02;;;4.70;;
50231;SDS011;36118;56.468;84.952;2023-03-01T21:42:14;9.70;;;5.30;;
50231;SDS011;36118;56.468;84.952;2023-03-01T21:47:17;8.55;;;4.65;;
50231;SDS011;36118;56.468;84.952;2023-03-01T21:52:20;10.48;;;5.70;;
50231;SDS011;36118;56.468;84.952;2023-03-01T21:57:22;10.07;;;4.80;;
50231;SDS011;36118;56.468;84.952;2023-03-01T22:02:25;10.77;;;4.60;;
50231;SDS011;36118;56.468;84.952;2023-03-01T22:07:29;9.85;;;4.97;;
50231;SDS011;36118;56.468;84.952;2023-03-01T22:12:32;10.90;;;4.95;;
50231;SDS011;36118;56.468;84.952;2023-03-01T22:17:35;9.98;;;5.07;;
50231;SDS011;36118;56.468;84.952;2023-03-01T22:22:37;11.15;;;5.65;;
50231;SDS011;36118;56.468;84.952;2023-03-01T22:27:40;10.35;;;5.00;;
50231;SDS011;36118;56.468;84.952;2023-03-01T22:32:43;11.13;;;5.30;;
50231;SDS011;36118;56.468;84.952;2023-03-01T22:37:47;10.57;;;5.75;;
50231;SDS011;36118;56.468;84.952;2023-03-01T22:42:50;13.55;;;4.50;;
50231;SDS011;36118;56.468;84.952;2023-03-01T22:47:53;10.98;;;5.00;;
50231;SDS011;36118;56.468;84.952;2023-03-01T22:52:55;10.60;;;5.05;;
50231;SDS011;36118;56.468;84.952;2023-03-01T22:57:58;11.02;;;5.80;;
50231;SDS011;36118;56.468;84.952;2023-03-01T23:03:01;10.50;;;5.07;;
50231;SDS011;36118;56.468;84.952;2023-03-01T23:08:04;10.55;;;5.68;;
50231;SDS011;36118;56.468;84.952;2023-03-01T23:13:06;9.50;;;5.18;;
50231;SDS011;36118;56.468;84.952;2023-03-01T23:18:09;12.13;;;5.15;;
50231;SDS011;36118;56.468;84.952;2023-03-01T23:23:12;9.80;;;5.55;;
50231;SDS011;36118;56.468;84.952;2023-03-01T23:28:15;12.15;;;5.45;;
50231;SDS011;36118;56.468;84.952;2023-03-01T23:33:18;12.15;;;5.70;;
50231;SDS011;36118;56.468;84.952;2023-03-01T23:38:21;11.63;;;6.50;;
50231;SDS011;36118;56.468;84.952;2023-03-01T23:43:23;10.55;;;5.85;;
50231;SDS011;36118;56.468;84.952;2023-03-01T23:48:26;8.93;;;4.80;;
50231;SDS011;36118;56.468;84.952;2023-03-01T23:53:29;10.90;;;4.95;;
50231;SDS011;36118;56.468;84.952;2023-03-01T23:58:32;11.50;;;4.82;;
